Time;durP1;ratioP1;P1;durP2;ratioP2;P2;SDS_P1;SDS_P2;PMS_P1;PMS_P2;Temp;Humidity;BMP_temperature;BMP_pressure;BME280_temperature;BME280_humidity;BME280_pressure;Samples;Min_cycle;Max_cycle;Signal;HPM_P1;HPM_P2
2023/12/13 00:02:14;;;;;;;107.85;29.83;;;;;;;-148.14;100.00;65945.72;4946321;29;20049;-90
2023/12/13 00:05:34;;;;;;;;;;;;;;;;;;;;;
2023/12/13 00:08:20;;;;;;;93.22;28.23;;;;;;;-148.14;100.00;65945.72;4945258;29;20559;-90
2023/12/13 00:11:08;;;;;;;98.65;29.30;;;;;;;-148.14;100.00;65945.72;4931472;29;20058;-89
2023/12/13 00:13:54;;;;;;;86.05;27.15;;;;;;;-148.14;100.00;65945.72;4930780;29;20099;-89
2023/12/13 00:16:41;;;;;;;79.32;26.55;;;;;;;-148.14;100.00;65945.72;4929077;29;20047;-91
2023/12/13 00:19:25;;;;;;;88.70;26.65;;;;;;;-148.14;100.00;65945.72;4922991;29;20548;-89
2023/12/13 00:26:50;;;;;;;85.45;25.35;;;;;;;-148.14;100.00;65945.72;4944466;29;20054;-89
2023/12/13 00:33:39;;;;;;;87.95;27.42;;;;;;;-148.14;100.00;65945.72;4948317;29;20080;-90
2023/12/13 00:36:23;;;;;;;90.68;25.90;;;;;;;-148.14;100.00;65945.72;4933508;29;20457;-89
2023/12/13 00:39:11;;;;;;;90.68;27.55;;;;;;;-148.14;100.00;65945.72;4933173;29;20058;-90
2023/12/13 00:42:01;;;;;;;79.80;25.08;;;;;;;-148.14;100.00;65945.72;4931937;29;20047;-89
2023/12/13 00:44:51;;;;;;;69.68;21.77;;;;;;;-148.14;100.00;65945.72;4933041;29;20106;-89
2023/12/13 00:47:42;;;;;;;62.22;20.65;;;;;;;-148.14;100.00;65945.72;4934540;29;20054;-89
2023/12/13 00:50:35;;;;;;;63.92;21.60;;;;;;;-148.14;100.00;65945.72;4933981;29;20077;-90
2023/12/13 00:53:38;;;;;;;52.95;16.50;;;;;;;-148.14;100.00;65945.72;4931635;29;20115;-89
2023/12/13 01:01:16;;;;;;;54.40;17.15;;;;;;;-148.14;100.00;65945.72;4947933;29;20598;-91
2023/12/13 01:04:18;;;;;;;60.15;18.15;;;;;;;-148.14;100.00;65945.72;4929623;29;20050;-89
2023/12/13 01:07:30;;;;;;;62.33;20.67;;;;;;;-148.14;100.00;65945.72;4934789;29;20062;-90
2023/12/13 01:10:36;;;;;;;61.97;18.60;;;;;;;-148.14;100.00;65945.72;4922397;29;20119;-89
2023/12/13 01:16:42;;;;;;;35.40;12.30;;;;;;;-148.14;100.00;65945.72;4947882;29;20078;-89
2023/12/13 01:19:32;;;;;;;30.67;9.93;;;;;;;-148.14;100.00;65945.72;4934033;29;20102;-89
2023/12/13 01:22:38;;;;;;;22.10;8.05;;;;;;;-148.14;100.00;65945.72;4932644;29;20078;-90
2023/12/13 01:25:51;;;;;;;38.15;10.23;;;;;;;-148.14;100.00;65945.72;4933492;29;20577;-89
2023/12/13 01:28:42;;;;;;;19.38;8.32;;;;;;;-148.14;100.00;65945.72;4932407;29;20063;-90
2023/12/13 01:36:09;;;;;;;14.35;6.13;;;;;;;-148.14;100.00;65945.72;4947796;29;20151;-88
2023/12/13 01:39:07;;;;;;;;;;;;;;;-148.14;100.00;65945.72;4946890;29;20062;-89
2023/12/13 01:41:58;;;;;;;13.18;5.18;;;;;;;-148.14;100.00;65945.72;4932591;29;19970;-89
2023/12/13 01:49:36;;;;;;;;;;;;;;;;;;;;;
2023/12/13 01:57:13;;;;;;;14.23;6.28;;;;;;;-148.14;100.00;65945.72;4948782;29;20050;-89
2023/12/13 02:00:59;;;;;;;13.50;5.43;;;;;;;-148.14;100.00;65945.72;4935808;29;20152;-91
2023/12/13 02:16:26;;;;;;;10.05;6.03;;;;;;;-148.14;100.00;65945.72;4888872;29;20123;-91
2023/12/13 02:19:18;;;;;;;10.57;5.25;;;;;;;-148.14;100.00;65945.72;4924451;29;20135;-90
2023/12/13 02:22:08;;;;;;;9.23;5.75;;;;;;;-148.14;100.00;65945.72;4924163;29;20055;-90
2023/12/13 02:25:03;;;;;;;11.43;5.32;;;;;;;-148.14;100.00;65945.72;4923745;29;20135;-88
2023/12/13 02:39:47;;;;;;;11.80;6.53;;;;;;;-148.14;100.00;65945.72;4920404;29;20127;-89
2023/12/13 02:48:03;;;;;;;;;;;;;;;;;;;;;
2023/12/13 02:54:59;;;;;;;12.85;6.30;;;;;;;-148.14;100.00;65945.72;4855964;29;20064;-92
2023/12/13 03:09:07;;;;;;;;;;;;;;;-148.14;100.00;65945.72;4842536;29;20057;-89
2023/12/13 03:12:00;;;;;;;13.63;7.60;;;;;;;-148.14;100.00;65945.72;4866458;29;19980;-88
2023/12/13 03:14:49;;;;;;;16.80;7.28;;;;;;;-148.14;100.00;65945.72;4892317;29;20062;-88
2023/12/13 03:17:55;;;;;;;13.93;7.13;;;;;;;-148.14;100.00;65945.72;4930706;29;20405;-91
2023/12/13 03:20:54;;;;;;;12.63;6.78;;;;;;;-148.14;100.00;65945.72;4910575;29;20042;-89
2023/12/13 04:04:50;;;;;;;;;;;;;;;;;;;;;
2023/12/13 04:20:16;;;;;;;23.55;10.23;;;;;;;-148.14;100.00;65945.72;4882492;29;20068;-89
2023/12/13 04:23:36;;;;;;;19.35;9.18;;;;;;;-148.14;100.00;65945.72;4921965;29;20119;-90
2023/12/13 04:29:55;;;;;;;27.23;9.52;;;;;;;-148.14;100.00;65945.72;4908502;29;20055;-88
2023/12/13 04:33:18;;;;;;;28.83;9.65;;;;;;;-148.14;100.00;65945.72;4913090;29;20123;-87
2023/12/13 04:48:14;;;;;;;15.23;5.60;;;;;;;-148.14;100.00;65945.72;4932085;29;20090;-89
2023/12/13 04:51:12;;;;;;;8.00;4.72;;;;;;;-148.14;100.00;65945.72;4914467;29;20058;-90
2023/12/13 04:57:45;;;;;;;8.02;3.70;;;;;;;-148.14;100.00;65945.72;4921564;29;20054;-89
2023/12/13 05:01:21;;;;;;;;;;;;;;;;;;;;;
2023/12/13 05:32:18;;;;;;;;;;;;;;;;;;;;;
2023/12/13 07:05:10;;;;;;;17.92;5.30;;;;;;;-148.14;100.00;65945.72;4876403;29;20099;-88
2023/12/13 07:08:08;;;;;;;15.70;4.88;;;;;;;-148.14;100.00;65945.72;4889967;29;20052;-89
2023/12/13 07:10:52;;;;;;;9.20;4.25;;;;;;;-148.14;100.00;65945.72;4868082;29;20077;-90
2023/12/13 07:14:22;;;;;;;11.93;4.55;;;;;;;-148.14;100.00;65945.72;4868444;29;20050;-92
2023/12/13 07:17:06;;;;;;;10.77;4.30;;;;;;;-148.14;100.00;65945.72;4885280;29;20047;-89
2023/12/13 07:19:54;;;;;;;16.77;5.40;;;;;;;-148.14;100.00;65945.72;4871211;29;20048;-86
2023/12/13 07:22:41;;;;;;;11.45;4.05;;;;;;;-148.14;100.00;65945.72;4897726;29;20092;-89
2023/12/13 07:33:26;;;;;;;11.98;5.03;;;;;;;-148.14;100.00;65945.72;4886619;29;20052;-90
2023/12/13 07:54:01;;;;;;;16.63;5.53;;;;;;;-148.14;100.00;65945.72;4901677;29;20562;-85
2023/12/13 07:57:53;;;;;;;18.13;5.22;;;;;;;-148.14;100.00;65945.72;4887462;29;20529;-87
2023/12/13 08:00:37;;;;;;;13.05;5.40;;;;;;;-148.14;100.00;65945.72;4827659;29;20107;-90
2023/12/13 08:03:27;;;;;;;16.77;5.05;;;;;;;-148.14;100.00;65945.72;4887374;29;20051;-90
2023/12/13 08:10:07;;;;;;;16.17;4.22;;;;;;;-148.14;100.00;65945.72;4902803;29;20141;-91
2023/12/13 08:16:12;;;;;;;12.13;3.30;;;;;;;-148.14;100.00;65945.72;5149229;23;20087;-87
2023/12/13 08:18:59;;;;;;;16.25;4.18;;;;;;;-148.14;100.00;65945.72;4931722;29;20109;-89
2023/12/13 08:30:03;;;;;;;14.77;4.40;;;;;;;-148.14;100.00;65945.72;4941800;29;20537;-88
2023/12/13 08:32:47;;;;;;;23.75;4.53;;;;;;;-148.14;100.00;65945.72;4937766;29;20050;-86
2023/12/13 08:35:32;;;;;;;13.18;4.20;;;;;;;-148.14;100.00;65945.72;4945388;29;20046;-89
2023/12/13 08:38:29;;;;;;;;;;;;;;;;;;;;;
2023/12/13 08:45:26;;;;;;;21.75;6.35;;;;;;;-148.14;100.00;65945.72;4962563;29;20079;-89
2023/12/13 08:48:21;;;;;;;19.58;4.45;;;;;;;-148.14;100.00;65945.72;4946677;29;20070;-90
2023/12/13 08:51:12;;;;;;;12.00;3.80;;;;;;;-148.14;100.00;65945.72;4947450;29;20523;-89
2023/12/13 08:54:07;;;;;;;15.07;4.30;;;;;;;-148.14;100.00;65945.72;4947340;29;20061;-90
2023/12/13 08:57:00;;;;;;;18.25;4.50;;;;;;;-148.14;100.00;65945.72;4947200;29;20086;-89
2023/12/13 12:35:35;;;;;;;5.63;2.15;;;;;;;-148.14;100.00;65945.72;4740512;23;20087;-90
2023/12/13 12:38:20;;;;;;;6.80;2.80;;;;;;;-148.14;100.00;65945.72;4944610;29;20042;-91
2023/12/13 12:41:18;;;;;;;8.45;2.80;;;;;;;-148.14;100.00;65945.72;4958694;29;20049;-89
2023/12/13 12:44:05;;;;;;;8.82;2.70;;;;;;;-148.14;100.00;65945.72;4944113;29;20042;-91
2023/12/13 12:46:57;;;;;;;6.45;3.08;;;;;;;-148.14;100.00;65945.72;4937201;29;20102;-88
2023/12/13 12:49:47;;;;;;;9.50;3.20;;;;;;;-148.14;100.00;65945.72;4925314;29;20042;-88
2023/12/13 12:52:32;;;;;;;11.25;3.10;;;;;;;-148.14;100.00;65945.72;4938798;29;20050;-90
2023/12/13 12:59:14;;;;;;;8.43;2.83;;;;;;;-148.14;100.00;65945.72;4940029;29;20100;-88
2023/12/13 13:02:01;;;;;;;11.35;3.65;;;;;;;-148.14;100.00;65945.72;4942530;29;20042;-89
2023/12/13 13:04:50;;;;;;;6.00;3.10;;;;;;;-148.14;100.00;65945.72;4940590;29;20110;-90
2023/12/13 13:07:38;;;;;;;6.95;3.58;;;;;;;-148.14;100.00;65945.72;4924388;29;20490;-89
2023/12/13 13:10:23;;;;;;;12.20;4.30;;;;;;;-148.14;100.00;65945.72;4924773;29;20066;-89
2023/12/13 13:13:07;;;;;;;11.05;3.80;;;;;;;-148.14;100.00;65945.72;4938982;29;20058;-89
2023/12/13 13:15:53;;;;;;;8.05;3.13;;;;;;;-148.14;100.00;65945.72;4924340;29;20508;-90
2023/12/13 13:18:38;;;;;;;13.30;3.78;;;;;;;-148.14;100.00;65945.72;4924563;29;20065;-90
2023/12/13 13:21:43;;;;;;;8.50;3.05;;;;;;;-148.14;100.00;65945.72;4925651;29;20055;-90
2023/12/13 13:24:33;;;;;;;7.47;3.38;;;;;;;-148.14;100.00;65945.72;4933894;29;20054;-90
2023/12/13 13:27:17;;;;;;;6.32;3.58;;;;;;;-148.14;100.00;65945.72;4923905;29;20082;-91
2023/12/13 13:30:14;;;;;;;8.43;3.67;;;;;;;-148.14;100.00;65945.72;4924282;29;20094;-88
2023/12/13 13:33:01;;;;;;;9.45;3.70;;;;;;;-148.14;100.00;65945.72;4924349;29;20523;-89
2023/12/13 13:35:50;;;;;;;10.15;3.80;;;;;;;-148.14;100.00;65945.72;4917939;29;20047;-89
2023/12/13 13:38:38;;;;;;;15.68;4.80;;;;;;;-148.14;100.00;65945.72;4918869;29;20043;-89
2023/12/13 13:41:25;;;;;;;7.80;3.70;;;;;;;-148.14;100.00;65945.72;4936836;29;20398;-90
2023/12/13 13:44:38;;;;;;;8.25;3.70;;;;;;;-148.14;100.00;65945.72;4937622;29;20050;-87
2023/12/13 13:47:23;;;;;;;13.40;4.37;;;;;;;-148.14;100.00;65945.72;4938230;29;20054;-89
2023/12/13 13:50:11;;;;;;;14.88;4.15;;;;;;;-148.14;100.00;65945.72;4927241;29;20051;-87
2023/12/13 13:53:01;;;;;;;12.48;3.92;;;;;;;-148.14;100.00;65945.72;4916849;29;20050;-88
2023/12/13 13:55:46;;;;;;;9.43;3.88;;;;;;;-148.14;100.00;65945.72;4918076;29;20623;-90
2023/12/13 13:58:35;;;;;;;5.97;3.60;;;;;;;-148.14;100.00;65945.72;4917134;29;20454;-90
2023/12/13 14:01:23;;;;;;;7.93;4.03;;;;;;;-148.14;100.00;65945.72;4916958;29;20139;-88
2023/12/13 14:04:08;;;;;;;6.68;4.80;;;;;;;-148.14;100.00;65945.72;4916785;29;20514;-89
2023/12/13 14:06:52;;;;;;;9.98;3.78;;;;;;;-148.14;100.00;65945.72;4916775;29;20070;-90
2023/12/13 14:09:40;;;;;;;15.52;4.78;;;;;;;-148.14;100.00;65945.72;4916440;29;20047;-91
2023/12/13 14:12:25;;;;;;;13.18;5.28;;;;;;;-148.14;100.00;65945.72;4917089;29;20123;-90
2023/12/13 14:15:11;;;;;;;9.25;4.47;;;;;;;-148.14;100.00;65945.72;4916665;29;20067;-89
2023/12/13 14:17:58;;;;;;;7.60;4.53;;;;;;;-148.14;100.00;65945.72;4933919;29;20074;-88
2023/12/13 14:20:44;;;;;;;9.68;4.68;;;;;;;-148.14;100.00;65945.72;4916601;29;20046;-88
2023/12/13 14:23:38;;;;;;;9.32;4.28;;;;;;;-148.14;100.00;65945.72;4921389;29;20054;-89
2023/12/13 14:26:23;;;;;;;8.10;4.68;;;;;;;-148.14;100.00;65945.72;4935293;29;20058;-88
2023/12/13 14:29:07;;;;;;;9.57;4.60;;;;;;;-148.14;100.00;65945.72;4935875;29;20050;-87
2023/12/13 14:31:57;;;;;;;6.35;4.82;;;;;;;-148.14;100.00;65945.72;4936524;29;20516;-89
2023/12/13 14:34:44;;;;;;;11.63;4.72;;;;;;;-148.14;100.00;65945.72;4935928;29;20067;-89
2023/12/13 14:37:38;;;;;;;7.32;4.78;;;;;;;-148.14;100.00;65945.72;4936195;29;20100;-89
2023/12/13 14:40:48;;;;;;;8.88;4.22;;;;;;;-148.14;100.00;65945.72;4935725;29;20046;-91
2023/12/13 14:43:42;;;;;;;8.38;4.13;;;;;;;-148.14;100.00;65945.72;4935649;29;20107;-88
2023/12/13 14:46:27;;;;;;;10.88;4.65;;;;;;;-148.14;100.00;65945.72;4935992;29;20107;-89
2023/12/13 14:49:14;;;;;;;11.90;4.30;;;;;;;-148.14;100.00;65945.72;4935261;29;20059;-89
2023/12/13 14:52:02;;;;;;;11.35;5.10;;;;;;;-148.14;100.00;65945.72;4935822;29;20047;-90
2023/12/13 14:54:47;;;;;;;7.53;4.95;;;;;;;-148.14;100.00;65945.72;4935953;29;20071;-88
2023/12/13 14:57:34;;;;;;;7.95;4.22;;;;;;;-148.14;100.00;65945.72;4935224;29;20557;-90
2023/12/13 15:00:20;;;;;;;6.72;4.30;;;;;;;-148.14;100.00;65945.72;4936137;29;20063;-89
2023/12/13 15:03:10;;;;;;;10.07;4.03;;;;;;;-148.14;100.00;65945.72;4935846;29;20127;-92
2023/12/13 15:06:10;;;;;;;14.82;4.50;;;;;;;-148.14;100.00;65945.72;4935315;29;20518;-87
2023/12/13 15:08:57;;;;;;;8.32;4.78;;;;;;;-148.14;100.00;65945.72;4935098;29;20445;-91
2023/12/13 15:14:55;;;;;;;7.85;4.30;;;;;;;-148.14;100.00;65945.72;4937402;29;20070;-89
2023/12/13 15:22:10;;;;;;;;;;;;;;;;;;;;;
2023/12/13 15:28:55;;;;;;;16.42;4.45;;;;;;;-148.14;100.00;65945.72;4948007;29;20078;-89
2023/12/13 15:31:39;;;;;;;8.20;4.47;;;;;;;-148.14;100.00;65945.72;4927753;29;20162;-91
2023/12/13 16:13:47;;;;;;;13.50;4.40;;;;;;;-148.14;100.00;65945.72;4825297;29;20058;-90
2023/12/13 16:24:53;;;;;;;10.45;3.80;;;;;;;-148.14;100.00;65945.72;4921054;29;20383;-89
2023/12/13 16:31:37;;;;;;;12.93;3.80;;;;;;;-148.14;100.00;65945.72;4921535;29;20549;-87
2023/12/13 16:34:21;;;;;;;10.57;3.50;;;;;;;-148.14;100.00;65945.72;4920934;29;20079;-86
2023/12/13 16:37:06;;;;;;;10.52;3.85;;;;;;;-148.14;100.00;65945.72;4932628;29;20042;-87
2023/12/13 16:39:50;;;;;;;11.32;3.33;;;;;;;-148.14;100.00;65945.72;4931928;29;20051;-88
2023/12/13 16:42:34;;;;;;;7.60;3.58;;;;;;;-148.14;100.00;65945.72;4936370;29;20099;-89
2023/12/13 16:45:19;;;;;;;10.00;3.92;;;;;;;-148.14;100.00;65945.72;4932485;29;20547;-85
2023/12/13 16:48:03;;;;;;;10.23;3.90;;;;;;;-148.14;100.00;65945.72;4934278;29;20050;-85
2023/12/13 16:50:47;;;;;;;10.05;4.22;;;;;;;-148.14;100.00;65945.72;4931826;29;20114;-86
2023/12/13 16:53:31;;;;;;;10.73;4.32;;;;;;;-148.14;100.00;65945.72;4925544;29;20046;-88
2023/12/13 16:56:15;;;;;;;13.15;4.80;;;;;;;-148.14;100.00;65945.72;4931706;29;20122;-86
2023/12/13 16:59:04;;;;;;;12.25;5.03;;;;;;;-148.14;100.00;65945.72;4931184;29;20090;-86
2023/12/13 17:01:48;;;;;;;16.00;5.55;;;;;;;-148.14;100.00;65945.72;4928851;29;20043;-86
2023/12/13 17:04:32;;;;;;;16.08;5.30;;;;;;;-148.14;100.00;65945.72;4930374;29;20053;-89
2023/12/13 17:07:22;;;;;;;15.57;4.90;;;;;;;-148.14;100.00;65945.72;4930778;29;20102;-87
2023/12/13 17:10:07;;;;;;;9.60;4.93;;;;;;;-148.14;100.00;65945.72;4938649;29;20058;-92
2023/12/13 17:13:29;;;;;;;12.75;4.97;;;;;;;-148.14;100.00;65945.72;4947380;29;20082;-91
2023/12/13 17:16:24;;;;;;;10.05;4.00;;;;;;;-148.14;100.00;65945.72;4942376;29;20051;-89
2023/12/13 17:19:08;;;;;;;10.82;4.55;;;;;;;-148.14;100.00;65945.72;4943085;29;20519;-89
2023/12/13 17:41:44;;;;;;;14.20;3.90;;;;;;;-148.14;100.00;65945.72;4896416;29;20059;-89
2023/12/13 17:44:29;;;;;;;11.00;4.03;;;;;;;-148.14;100.00;65945.72;4897905;29;20105;-89
2023/12/13 17:51:15;;;;;;;;;;;;;;;;;;;;;
2023/12/13 18:01:52;;;;;;;14.95;6.43;;;;;;;-148.14;100.00;65945.72;4926230;29;20051;-91
2023/12/13 18:04:47;;;;;;;18.55;5.38;;;;;;;-148.14;100.00;65945.72;4917531;29;20054;-88
2023/12/13 18:15:36;;;;;;;16.48;5.95;;;;;;;-148.14;100.00;65945.72;4865590;29;20053;-91
2023/12/13 18:30:17;;;;;;;;;;;;;;;;;;;;;
2023/12/13 18:40:35;;;;;;;14.48;5.80;;;;;;;-148.14;100.00;65945.72;4947020;29;20045;-93
2023/12/13 18:43:42;;;;;;;18.80;6.03;;;;;;;-148.14;100.00;65945.72;4927006;29;20106;-90
2023/12/13 18:46:40;;;;;;;15.75;5.00;;;;;;;-148.14;100.00;65945.72;4945264;29;20095;-90
2023/12/13 18:49:31;;;;;;;19.60;5.72;;;;;;;-148.14;100.00;65945.72;4921306;29;20055;-90
2023/12/13 18:52:26;;;;;;;15.43;7.30;;;;;;;-148.14;100.00;65945.72;4928758;29;20470;-92
2023/12/13 18:55:14;;;;;;;17.98;6.15;;;;;;;-148.14;100.00;65945.72;4928368;29;20046;-91
2023/12/13 18:58:07;;;;;;;22.25;6.60;;;;;;;-148.14;100.00;65945.72;4927880;29;20062;-91
2023/12/13 19:01:19;;;;;;;17.60;6.30;;;;;;;-148.14;100.00;65945.72;4938343;29;20518;-89
2023/12/13 19:04:08;;;;;;;21.00;5.20;;;;;;;-148.14;100.00;65945.72;4923860;29;20355;-90
2023/12/13 19:11:48;;;;;;;14.95;5.05;;;;;;;-148.14;100.00;65945.72;4945206;29;20082;-91
2023/12/13 19:18:31;;;;;;;12.60;4.88;;;;;;;-148.14;100.00;65945.72;4938925;29;20103;-90
2023/12/13 19:21:41;;;;;;;9.75;4.88;;;;;;;-148.14;100.00;65945.72;4933310;29;20538;-91
2023/12/13 19:41:44;;;;;;;15.95;6.18;;;;;;;-148.14;100.00;65945.72;4865745;29;20444;-90
2023/12/13 19:44:34;;;;;;;18.70;6.75;;;;;;;-148.14;100.00;65945.72;4928711;29;20525;-89
2023/12/13 20:03:42;;;;;;;15.60;5.88;;;;;;;-148.14;100.00;65945.72;4954230;28;20050;-89
2023/12/13 20:07:31;;;;;;;17.38;5.60;;;;;;;-148.14;100.00;65945.72;4919738;29;20410;-89
2023/12/13 20:18:43;;;;;;;;;;;;;;;;;;;;;
2023/12/13 20:26:16;;;;;;;18.00;7.23;;;;;;;-148.14;100.00;65945.72;4906801;29;20110;-88
2023/12/13 20:29:07;;;;;;;18.67;6.15;;;;;;;-148.14;100.00;65945.72;4901370;29;20094;-91
2023/12/13 20:31:54;;;;;;;16.25;5.78;;;;;;;-148.14;100.00;65945.72;4906158;29;20403;-89
2023/12/13 20:34:46;;;;;;;15.95;5.38;;;;;;;-148.14;100.00;65945.72;4906194;29;20487;-85
2023/12/13 20:41:44;;;;;;;11.57;5.10;;;;;;;-148.14;100.00;65945.72;4920169;29;20127;-87
2023/12/13 20:44:30;;;;;;;18.45;6.68;;;;;;;-148.14;100.00;65945.72;4920087;29;20038;-85
2023/12/13 20:47:14;;;;;;;11.15;5.47;;;;;;;-148.14;100.00;65945.72;4935476;29;20128;-87
2023/12/13 20:49:59;;;;;;;13.15;4.85;;;;;;;-148.14;100.00;65945.72;4922005;29;20062;-88
2023/12/13 20:52:49;;;;;;;16.88;4.88;;;;;;;-148.14;100.00;65945.72;4937231;29;20107;-87
2023/12/13 21:04:39;;;;;;;13.18;5.53;;;;;;;-148.14;100.00;65945.72;4933372;29;20134;-86
2023/12/13 21:08:11;;;;;;;16.88;4.85;;;;;;;-148.14;100.00;65945.72;4922367;29;20059;-90
2023/12/13 21:11:37;;;;;;;7.93;4.47;;;;;;;-148.14;100.00;65945.72;4918890;29;20067;-86
2023/12/13 21:15:10;;;;;;;17.00;7.47;;;;;;;-148.14;100.00;65945.72;4924008;29;20058;-87
2023/12/13 21:30:03;;;;;;;10.90;5.32;;;;;;;-148.14;100.00;65945.72;4852864;29;20133;-89
2023/12/13 21:57:46;;;;;;;14.52;6.25;;;;;;;-148.14;100.00;65945.72;4942695;28;20046;-89
2023/12/13 22:01:00;;;;;;;13.43;5.18;;;;;;;-148.14;100.00;65945.72;4938602;29;20050;-90
2023/12/13 22:03:49;;;;;;;14.93;5.38;;;;;;;-148.14;100.00;65945.72;4938427;29;20443;-90
2023/12/13 22:06:55;;;;;;;12.35;4.80;;;;;;;-148.14;100.00;65945.72;4937123;29;20509;-90
2023/12/13 22:10:26;;;;;;;14.60;5.22;;;;;;;-148.14;100.00;65945.72;4941433;29;20050;-91
2023/12/13 22:13:11;;;;;;;14.52;5.07;;;;;;;-148.14;100.00;65945.72;4924244;29;20050;-90
2023/12/13 22:15:56;;;;;;;15.98;5.55;;;;;;;-148.14;100.00;65945.72;4944261;29;20047;-90
2023/12/13 22:18:56;;;;;;;16.27;4.75;;;;;;;-148.14;100.00;65945.72;4934233;29;20054;-89
2023/12/13 22:25:09;;;;;;;12.02;4.45;;;;;;;-148.14;100.00;65945.72;4945323;29;20099;-89
2023/12/13 22:32:04;;;;;;;11.32;4.20;;;;;;;-148.14;100.00;65945.72;4939540;29;20051;-91
2023/12/13 22:34:57;;;;;;;9.48;2.92;;;;;;;-148.14;100.00;65945.72;4923844;29;20532;-90
2023/12/13 22:37:45;;;;;;;13.52;3.92;;;;;;;-148.14;100.00;65945.72;4928925;29;20070;-90
2023/12/13 22:40:51;;;;;;;14.65;4.22;;;;;;;-148.14;100.00;65945.72;4924263;29;20094;-90
2023/12/13 22:43:54;;;;;;;11.57;4.90;;;;;;;-148.14;100.00;65945.72;4924249;29;20078;-89
2023/12/13 22:46:59;;;;;;;11.75;3.72;;;;;;;-148.14;100.00;65945.72;4931926;29;20054;-89
2023/12/13 22:49:45;;;;;;;12.80;3.83;;;;;;;-148.14;100.00;65945.72;4923592;29;20055;-90
2023/12/13 22:52:30;;;;;;;13.73;3.85;;;;;;;-148.14;100.00;65945.72;4930383;29;20112;-90
2023/12/13 22:55:18;;;;;;;20.92;5.18;;;;;;;-148.14;100.00;65945.72;4932362;29;20046;-91
2023/12/13 22:58:14;;;;;;;15.82;4.25;;;;;;;-148.14;100.00;65945.72;4941185;29;20042;-89
2023/12/13 23:00:58;;;;;;;12.23;4.32;;;;;;;-148.14;100.00;65945.72;4941391;29;20098;-89
2023/12/13 23:03:45;;;;;;;10.25;3.50;;;;;;;-148.14;100.00;65945.72;4939659;29;20043;-91
2023/12/13 23:06:30;;;;;;;11.63;3.85;;;;;;;-148.14;100.00;65945.72;4931520;29;20142;-90
2023/12/13 23:09:14;;;;;;;10.68;2.60;;;;;;;-148.14;100.00;65945.72;4924574;29;20482;-91
2023/12/13 23:11:58;;;;;;;8.35;2.63;;;;;;;-148.14;100.00;65945.72;4923052;29;20068;-90
2023/12/13 23:14:42;;;;;;;15.00;2.85;;;;;;;-148.14;100.00;65945.72;4925556;29;20136;-90
2023/12/13 23:17:26;;;;;;;7.22;2.20;;;;;;;-148.14;100.00;65945.72;4928858;29;20462;-90
2023/12/13 23:20:10;;;;;;;9.77;3.20;;;;;;;-148.14;100.00;65945.72;4929589;29;20108;-91
2023/12/13 23:22:56;;;;;;;12.40;3.00;;;;;;;-148.14;100.00;65945.72;4927685;29;20111;-90
2023/12/13 23:25:40;;;;;;;7.60;2.83;;;;;;;-148.14;100.00;65945.72;4936081;29;20038;-89
2023/12/13 23:28:25;;;;;;;5.30;2.35;;;;;;;-148.14;100.00;65945.72;4935624;29;20057;-90
2023/12/13 23:31:10;;;;;;;6.85;2.75;;;;;;;-148.14;100.00;65945.72;4932305;29;20058;-89
2023/12/13 23:33:56;;;;;;;8.63;2.95;;;;;;;-148.14;100.00;65945.72;4928169;29;20058;-90
2023/12/13 23:36:40;;;;;;;10.80;2.47;;;;;;;-148.14;100.00;65945.72;4925444;29;20038;-90
2023/12/13 23:39:24;;;;;;;7.15;2.28;;;;;;;-148.14;100.00;65945.72;4937339;29;20058;-90
2023/12/13 23:42:08;;;;;;;8.45;2.65;;;;;;;-148.14;100.00;65945.72;4931677;29;20034;-89
2023/12/13 23:44:52;;;;;;;9.75;2.78;;;;;;;-148.14;100.00;65945.72;4929479;29;20104;-91
2023/12/13 23:47:36;;;;;;;5.53;2.88;;;;;;;-148.14;100.00;65945.72;4935429;29;20076;-91
2023/12/13 23:50:20;;;;;;;6.53;1.92;;;;;;;-148.14;100.00;65945.72;4932998;29;20055;-89
2023/12/13 23:53:07;;;;;;;10.15;3.00;;;;;;;-148.14;100.00;65945.72;4923970;29;20047;-89
2023/12/13 23:55:51;;;;;;;8.70;2.17;;;;;;;-148.14;100.00;65945.72;4928926;29;20046;-91
2023/12/13 23:58:35;;;;;;;7.13;2.35;;;;;;;-148.14;100.00;65945.72;4935981;29;20062;-88
